sensor_id;sensor_type;location;lat;lon;timestamp;P1;durP1;ratioP1;P2;durP2;ratioP2
60078;SDS011;45951;45.824;8.824;2023-04-01T00:04:44;2.95;;;2.03;;
60078;SDS011;45951;45.824;8.824;2023-04-01T00:10:44;4.13;;;2.30;;
60078;SDS011;45951;45.824;8.824;2023-04-01T00:16:45;3.28;;;2.10;;
60078;SDS011;45951;45.824;8.824;2023-04-01T00:22:45;2.58;;;1.80;;
60078;SDS011;45951;45.824;8.824;2023-04-01T00:28:46;3.27;;;1.57;;
60078;SDS011;45951;45.824;8.824;2023-04-01T00:34:49;1.83;;;1.50;;
60078;SDS011;45951;45.824;8.824;2023-04-01T00:40:51;1.33;;;1.10;;
60078;SDS011;45951;45.824;8.824;2023-04-01T00:46:58;1.17;;;1.08;;
60078;SDS011;45951;45.824;8.824;2023-04-01T00:52:59;1.20;;;1.10;;
60078;SDS011;45951;45.824;8.824;2023-04-01T00:59:01;1.10;;;0.90;;
60078;SDS011;45951;45.824;8.824;2023-04-01T01:05:08;2.45;;;1.30;;
60078;SDS011;45951;45.824;8.824;2023-04-01T01:11:12;1.92;;;1.38;;
60078;SDS011;45951;45.824;8.824;2023-04-01T01:30:13;1.00;;;0.90;;
60078;SDS011;45951;45.824;8.824;2023-04-01T01:36:17;0.80;;;0.80;;
60078;SDS011;45951;45.824;8.824;2023-04-01T01:42:19;1.38;;;1.20;;
60078;SDS011;45951;45.824;8.824;2023-04-01T01:48:20;1.15;;;1.00;;
60078;SDS011;45951;45.824;8.824;2023-04-01T01:54:22;0.90;;;0.90;;
60078;SDS011;45951;45.824;8.824;2023-04-01T02:00:22;1.92;;;1.38;;
60078;SDS011;45951;45.824;8.824;2023-04-01T02:06:23;2.92;;;1.65;;
60078;SDS011;45951;45.824;8.824;2023-04-01T02:12:26;2.25;;;1.42;;
60078;SDS011;45951;45.824;8.824;2023-04-01T02:18:28;2.03;;;1.30;;
60078;SDS011;45951;45.824;8.824;2023-04-01T02:24:30;2.55;;;2.33;;
60078;SDS011;45951;45.824;8.824;2023-04-01T02:30:32;2.50;;;1.35;;
60078;SDS011;45951;45.824;8.824;2023-04-01T02:36:35;2.85;;;1.75;;
60078;SDS011;45951;45.824;8.824;2023-04-01T02:42:36;2.15;;;1.70;;
60078;SDS011;45951;45.824;8.824;2023-04-01T02:48:36;1.88;;;1.33;;
60078;SDS011;45951;45.824;8.824;2023-04-01T02:54:37;1.63;;;1.17;;
60078;SDS011;45951;45.824;8.824;2023-04-01T03:00:37;1.13;;;1.00;;
60078;SDS011;45951;45.824;8.824;2023-04-01T03:06:37;1.95;;;1.30;;
60078;SDS011;45951;45.824;8.824;2023-04-01T03:12:38;1.92;;;1.38;;
60078;SDS011;45951;45.824;8.824;2023-04-01T03:18:38;3.05;;;1.70;;
60078;SDS011;45951;45.824;8.824;2023-04-01T03:24:38;1.30;;;1.20;;
60078;SDS011;45951;45.824;8.824;2023-04-01T03:30:39;1.42;;;1.10;;
60078;SDS011;45951;45.824;8.824;2023-04-01T03:36:39;3.33;;;1.10;;
60078;SDS011;45951;45.824;8.824;2023-04-01T03:42:40;2.97;;;0.93;;
60078;SDS011;45951;45.824;8.824;2023-04-01T03:48:40;2.77;;;1.00;;
60078;SDS011;45951;45.824;8.824;2023-04-01T03:54:40;0.70;;;0.70;;
60078;SDS011;45951;45.824;8.824;2023-04-01T04:00:41;1.55;;;1.20;;
60078;SDS011;45951;45.824;8.824;2023-04-01T04:06:41;1.00;;;0.80;;
60078;SDS011;45951;45.824;8.824;2023-04-01T04:12:41;0.70;;;0.60;;
60078;SDS011;45951;45.824;8.824;2023-04-01T04:18:42;0.57;;;0.57;;
60078;SDS011;45951;45.824;8.824;2023-04-01T04:24:42;0.60;;;0.60;;
60078;SDS011;45951;45.824;8.824;2023-04-01T04:30:42;0.73;;;0.70;;
60078;SDS011;45951;45.824;8.824;2023-04-01T04:36:43;0.60;;;0.40;;
60078;SDS011;45951;45.824;8.824;2023-04-01T04:42:43;1.45;;;0.57;;
60078;SDS011;45951;45.824;8.824;2023-04-01T04:48:43;1.45;;;0.88;;
60078;SDS011;45951;45.824;8.824;2023-04-01T04:54:44;0.57;;;0.57;;
60078;SDS011;45951;45.824;8.824;2023-04-01T05:00:44;1.25;;;0.80;;
60078;SDS011;45951;45.824;8.824;2023-04-01T05:06:45;1.17;;;0.95;;
60078;SDS011;45951;45.824;8.824;2023-04-01T05:12:45;0.60;;;0.60;;
60078;SDS011;45951;45.824;8.824;2023-04-01T05:18:46;0.57;;;0.57;;
60078;SDS011;45951;45.824;8.824;2023-04-01T05:24:47;0.73;;;0.57;;
60078;SDS011;45951;45.824;8.824;2023-04-01T05:30:47;0.80;;;0.60;;
60078;SDS011;45951;45.824;8.824;2023-04-01T05:36:47;0.57;;;0.57;;
60078;SDS011;45951;45.824;8.824;2023-04-01T05:42:47;1.42;;;0.70;;
60078;SDS011;45951;45.824;8.824;2023-04-01T05:48:48;0.75;;;0.50;;
60078;SDS011;45951;45.824;8.824;2023-04-01T05:54:48;2.10;;;0.90;;
60078;SDS011;45951;45.824;8.824;2023-04-01T06:00:48;1.00;;;1.00;;
60078;SDS011;45951;45.824;8.824;2023-04-01T06:06:49;0.80;;;0.80;;
60078;SDS011;45951;45.824;8.824;2023-04-01T06:12:51;1.33;;;1.23;;
60078;SDS011;45951;45.824;8.824;2023-04-01T06:49:59;1.23;;;1.17;;
60078;SDS011;45951;45.824;8.824;2023-04-01T06:56:08;1.08;;;0.80;;
60078;SDS011;45951;45.824;8.824;2023-04-01T07:02:16;3.70;;;1.17;;
60078;SDS011;45951;45.824;8.824;2023-04-01T07:08:23;0.70;;;0.68;;
60078;SDS011;45951;45.824;8.824;2023-04-01T07:14:29;1.33;;;1.20;;
60078;SDS011;45951;45.824;8.824;2023-04-01T07:20:32;2.53;;;1.20;;
60078;SDS011;45951;45.824;8.824;2023-04-01T07:26:35;0.90;;;0.90;;
60078;SDS011;45951;45.824;8.824;2023-04-01T07:32:39;1.08;;;1.08;;
60078;SDS011;45951;45.824;8.824;2023-04-01T07:51:02;1.40;;;1.30;;
60078;SDS011;45951;45.824;8.824;2023-04-01T07:57:11;1.52;;;1.48;;
60078;SDS011;45951;45.824;8.824;2023-04-01T08:03:19;0.73;;;0.73;;
60078;SDS011;45951;45.824;8.824;2023-04-01T08:15:45;0.60;;;0.60;;
60078;SDS011;45951;45.824;8.824;2023-04-01T08:22:10;0.75;;;0.73;;
60078;SDS011;45951;45.824;8.824;2023-04-01T08:28:19;1.40;;;0.60;;
60078;SDS011;45951;45.824;8.824;2023-04-01T08:34:32;1.33;;;0.70;;
60078;SDS011;45951;45.824;8.824;2023-04-01T08:40:47;0.90;;;0.70;;
60078;SDS011;45951;45.824;8.824;2023-04-01T08:53:48;1.85;;;0.82;;
60078;SDS011;45951;45.824;8.824;2023-04-01T08:59:35;0.80;;;0.70;;
60078;SDS011;45951;45.824;8.824;2023-04-01T09:56:12;2.03;;;1.20;;
60078;SDS011;45951;45.824;8.824;2023-04-01T10:14:57;1.52;;;0.98;;
60078;SDS011;45951;45.824;8.824;2023-04-01T10:33:46;1.13;;;0.87;;
60078;SDS011;45951;45.824;8.824;2023-04-01T10:40:31;0.90;;;0.82;;
60078;SDS011;45951;45.824;8.824;2023-04-01T11:00:03;1.48;;;0.85;;
60078;SDS011;45951;45.824;8.824;2023-04-01T11:31:43;1.08;;;0.88;;
60078;SDS011;45951;45.824;8.824;2023-04-01T11:44:16;0.80;;;0.80;;
60078;SDS011;45951;45.824;8.824;2023-04-01T11:50:25;1.10;;;1.00;;
60078;SDS011;45951;45.824;8.824;2023-04-01T11:56:44;1.10;;;1.00;;
60078;SDS011;45951;45.824;8.824;2023-04-01T12:41:30;0.88;;;0.70;;
60078;SDS011;45951;45.824;8.824;2023-04-01T12:47:53;0.77;;;0.70;;
60078;SDS011;45951;45.824;8.824;2023-04-01T13:00:23;1.10;;;1.00;;
60078;SDS011;45951;45.824;8.824;2023-04-01T13:19:53;1.02;;;0.88;;
60078;SDS011;45951;45.824;8.824;2023-04-01T13:32:36;2.00;;;1.42;;
60078;SDS011;45951;45.824;8.824;2023-04-01T13:57:42;0.90;;;0.90;;
60078;SDS011;45951;45.824;8.824;2023-04-01T14:03:54;0.85;;;0.80;;
60078;SDS011;45951;45.824;8.824;2023-04-01T14:10:24;0.70;;;0.70;;
60078;SDS011;45951;45.824;8.824;2023-04-01T14:16:34;0.70;;;0.70;;
60078;SDS011;45951;45.824;8.824;2023-04-01T14:28:52;1.98;;;1.08;;
60078;SDS011;45951;45.824;8.824;2023-04-01T14:35:22;1.63;;;0.98;;
60078;SDS011;45951;45.824;8.824;2023-04-01T14:41:32;0.85;;;0.80;;
60078;SDS011;45951;45.824;8.824;2023-04-01T15:43:51;1.90;;;0.98;;
60078;SDS011;45951;45.824;8.824;2023-04-01T15:50:00;0.77;;;0.77;;
60078;SDS011;45951;45.824;8.824;2023-04-01T16:33:59;0.60;;;0.60;;
60078;SDS011;45951;45.824;8.824;2023-04-01T16:40:11;1.27;;;1.10;;
60078;SDS011;45951;45.824;8.824;2023-04-01T16:46:21;1.20;;;0.80;;
60078;SDS011;45951;45.824;8.824;2023-04-01T16:52:48;1.25;;;1.10;;
60078;SDS011;45951;45.824;8.824;2023-04-01T17:04:58;3.00;;;1.00;;
60078;SDS011;45951;45.824;8.824;2023-04-01T17:17:45;4.30;;;2.25;;
60078;SDS011;45951;45.824;8.824;2023-04-01T18:26:41;1.02;;;0.90;;
60078;SDS011;45951;45.824;8.824;2023-04-01T18:32:48;2.15;;;1.00;;
60078;SDS011;45951;45.824;8.824;2023-04-01T18:38:53;1.65;;;1.05;;
60078;SDS011;45951;45.824;8.824;2023-04-01T18:45:18;1.40;;;1.15;;
60078;SDS011;45951;45.824;8.824;2023-04-01T18:57:47;1.50;;;0.88;;
60078;SDS011;45951;45.824;8.824;2023-04-01T19:10:12;0.98;;;0.73;;
60078;SDS011;45951;45.824;8.824;2023-04-01T19:16:26;1.83;;;0.93;;
60078;SDS011;45951;45.824;8.824;2023-04-01T19:28:58;4.70;;;1.35;;
60078;SDS011;45951;45.824;8.824;2023-04-01T19:35:18;1.00;;;0.65;;
60078;SDS011;45951;45.824;8.824;2023-04-01T20:00:36;0.73;;;0.70;;
60078;SDS011;45951;45.824;8.824;2023-04-01T20:07:00;3.00;;;1.70;;
60078;SDS011;45951;45.824;8.824;2023-04-01T20:19:26;1.45;;;0.90;;
60078;SDS011;45951;45.824;8.824;2023-04-01T20:25:33;0.60;;;0.60;;
60078;SDS011;45951;45.824;8.824;2023-04-01T20:31:40;0.68;;;0.68;;
60078;SDS011;45951;45.824;8.824;2023-04-01T20:44:13;1.05;;;0.80;;
60078;SDS011;45951;45.824;8.824;2023-04-01T20:57:11;1.08;;;0.80;;
60078;SDS011;45951;45.824;8.824;2023-04-01T21:03:29;1.98;;;1.00;;
60078;SDS011;45951;45.824;8.824;2023-04-01T21:09:44;1.77;;;0.70;;
60078;SDS011;45951;45.824;8.824;2023-04-01T21:16:04;0.60;;;0.60;;
60078;SDS011;45951;45.824;8.824;2023-04-01T21:29:28;0.90;;;0.70;;
60078;SDS011;45951;45.824;8.824;2023-04-01T21:41:34;1.13;;;0.65;;
60078;SDS011;45951;45.824;8.824;2023-04-01T22:13:01;0.80;;;0.50;;
60078;SDS011;45951;45.824;8.824;2023-04-01T22:31:11;0.82;;;0.70;;
60078;SDS011;45951;45.824;8.824;2023-04-01T22:37:26;0.50;;;0.50;;
60078;SDS011;45951;45.824;8.824;2023-04-01T22:43:45;1.48;;;0.82;;
60078;SDS011;45951;45.824;8.824;2023-04-01T22:49:55;0.80;;;0.50;;
60078;SDS011;45951;45.824;8.824;2023-04-01T22:56:00;1.17;;;0.70;;
60078;SDS011;45951;45.824;8.824;2023-04-01T23:02:22;0.50;;;0.50;;
60078;SDS011;45951;45.824;8.824;2023-04-01T23:14:54;0.52;;;0.52;;
60078;SDS011;45951;45.824;8.824;2023-04-01T23:27:13;0.55;;;0.52;;
60078;SDS011;45951;45.824;8.824;2023-04-01T23:45:21;0.50;;;0.50;;
60078;SDS011;45951;45.824;8.824;2023-04-01T23:51:29;0.73;;;0.73;;
60078;SDS011;45951;45.824;8.824;2023-04-01T23:57:38;1.00;;;0.70;;
